Time;durP1;ratioP1;P1;durP2;ratioP2;P2;SDS_P1;SDS_P2;PMS_P1;PMS_P2;Temp;Humidity;BMP_temperature;BMP_pressure;BME280_temperature;BME280_humidity;BME280_pressure;Samples;Min_cycle;Max_cycle;Signal;HPM_P1;HPM_P2
2023/12/11 08:05:20;;;;;;;2.30;1.20;;;22.50;60.30;;;;;;5060765;28;20831;-86
2023/12/11 08:07:47;;;;;;;1.60;1.30;;;22.40;61.30;;;;;;5072762;28;20436;-84
2023/12/11 08:10:14;;;;;;;2.23;1.27;;;22.50;60.60;;;;;;5073205;28;20479;-89
2023/12/11 08:12:40;;;;;;;3.10;1.00;;;22.50;60.60;;;;;;5076501;28;20476;-90
2023/12/11 08:15:08;;;;;;;2.43;1.37;;;22.50;60.60;;;;;;5076240;28;20810;-89
2023/12/11 08:17:35;;;;;;;3.83;1.37;;;22.50;60.60;;;;;;5076318;28;20444;-87
2023/12/11 08:20:02;;;;;;;3.00;1.23;;;22.50;60.50;;;;;;5076397;28;20520;-88
2023/12/11 08:22:30;;;;;;;2.70;1.40;;;22.50;60.50;;;;;;5076486;28;20441;-89
2023/12/11 08:24:57;;;;;;;2.80;1.47;;;22.50;60.60;;;;;;5076219;28;20494;-90
2023/12/11 08:27:24;;;;;;;2.40;1.20;;;22.50;60.80;;;;;;5075679;28;20946;-86
2023/12/11 08:29:51;;;;;;;4.70;1.30;;;22.50;60.60;;;;;;5076147;28;20468;-90
2023/12/11 08:32:18;;;;;;;9.93;2.90;;;22.50;60.50;;;;;;5075331;28;20509;-90
2023/12/11 08:34:45;;;;;;;5.90;2.23;;;22.60;60.50;;;;;;5075544;28;20464;-90
2023/12/11 08:37:12;;;;;;;5.53;2.70;;;22.50;59.90;;;;;;5075402;28;20532;-90
2023/12/11 08:39:40;;;;;;;6.30;2.10;;;22.40;59.80;;;;;;5075428;28;20633;-90
2023/12/11 08:42:07;;;;;;;4.40;1.77;;;22.30;60.20;;;;;;5075540;28;20875;-88
2023/12/11 08:44:34;;;;;;;3.77;1.70;;;22.30;60.30;;;;;;5075781;28;20520;-88
2023/12/11 08:47:01;;;;;;;2.97;1.60;;;22.30;60.40;;;;;;5075776;28;20833;-90
2023/12/11 08:49:28;;;;;;;9.80;1.90;;;22.30;60.40;;;;;;5075590;28;20867;-90
2023/12/11 08:51:55;;;;;;;4.57;1.70;;;22.30;60.30;;;;;;5075635;28;20544;-90
2023/12/11 08:54:22;;;;;;;6.00;1.97;;;22.40;60.40;;;;;;5075449;28;20445;-91
2023/12/11 08:56:51;;;;;;;3.67;1.83;;;22.40;61.20;;;;;;5075966;28;20487;-89
2023/12/11 08:59:18;;;;;;;3.87;1.83;;;22.40;60.10;;;;;;5075223;28;20440;-86
2023/12/11 09:01:44;;;;;;;3.20;1.73;;;22.40;60.00;;;;;;5075608;28;20484;-90
2023/12/11 09:04:11;;;;;;;7.40;1.93;;;22.50;60.00;;;;;;5069102;28;20465;-86
2023/12/11 09:06:39;;;;;;;4.73;1.97;;;22.50;59.90;;;;;;5054197;28;20532;-89
2023/12/11 09:09:06;;;;;;;5.40;1.93;;;22.50;59.80;;;;;;5053635;28;20445;-91
2023/12/11 09:14:09;;;;;;;2.07;1.33;;;22.50;58.70;;;;;;3529782;22;20477;-88
2023/12/11 09:16:36;;;;;;;6.67;1.83;;;22.40;58.60;;;;;;5053252;28;20433;-89
2023/12/11 09:19:03;;;;;;;2.47;1.30;;;22.40;59.50;;;;;;5054609;28;20488;-89
2023/12/11 09:21:30;;;;;;;3.40;1.90;;;22.40;59.10;;;;;;5053821;28;20489;-88
2023/12/11 09:23:57;;;;;;;4.40;1.80;;;22.50;59.70;;;;;;5054221;28;20574;-89
2023/12/11 09:26:23;;;;;;;10.00;1.80;;;22.40;59.60;;;;;;5053053;28;20520;-91
2023/12/11 09:28:50;;;;;;;6.63;2.73;;;22.50;59.70;;;;;;5071835;28;20441;-91
2023/12/11 09:31:20;;;;;;;8.10;5.50;;;22.50;59.90;;;;;;5055038;28;20525;-89
2023/12/11 09:33:47;;;;;;;10.33;5.97;;;22.50;60.40;;;;;;5054472;28;20518;-90
2023/12/11 09:36:14;;;;;;;13.63;7.27;;;22.50;60.90;;;;;;5054248;28;20528;-89
2023/12/11 09:38:42;;;;;;;14.20;9.47;;;22.50;61.50;;;;;;5054386;28;20465;-89
2023/12/11 09:41:09;;;;;;;21.07;9.40;;;22.60;62.10;;;;;;5054414;28;20481;-90
2023/12/11 09:43:37;;;;;;;25.43;9.23;;;22.60;62.20;;;;;;5054538;28;20992;-89
2023/12/11 09:46:09;;;;;;;25.07;12.10;;;22.60;62.40;;;;;;5054289;28;21000;-90
2023/12/11 09:48:37;;;;;;;26.00;11.70;;;22.60;63.10;;;;;;5054310;28;20868;-89
2023/12/11 09:51:05;;;;;;;29.37;12.20;;;22.70;63.50;;;;;;5054173;28;20529;-90
2023/12/11 09:53:33;;;;;;;43.67;13.30;;;22.70;63.70;;;;;;5054226;28;20484;-90
2023/12/11 09:56:00;;;;;;;25.30;12.07;;;22.70;63.90;;;;;;5054238;28;20503;-91
2023/12/11 09:58:27;;;;;;;30.13;12.30;;;22.70;64.30;;;;;;5054453;28;20444;-90
2023/12/11 10:01:00;;;;;;;25.17;13.23;;;22.70;64.30;;;;;;5054004;28;20492;-90
2023/12/11 10:03:27;;;;;;;32.73;15.40;;;22.70;64.70;;;;;;5053972;28;20461;-90
2023/12/11 10:05:59;;;;;;;33.80;15.40;;;22.70;64.60;;;;;;5053999;28;20475;-88
2023/12/11 10:08:26;;;;;;;39.77;15.60;;;22.70;65.30;;;;;;5053903;28;20441;-89
2023/12/11 10:11:09;;;;;;;41.10;14.50;;;22.80;65.60;;;;;;5054063;28;20446;-90
2023/12/11 10:13:36;;;;;;;45.63;16.50;;;22.80;66.00;;;;;;5053583;28;20473;-90
2023/12/11 10:16:03;;;;;;;34.20;16.87;;;22.80;66.50;;;;;;5053752;28;20532;-90
2023/12/11 10:18:30;;;;;;;50.90;19.33;;;22.80;67.00;;;;;;5053718;28;20495;-85
2023/12/11 10:20:59;;;;;;;58.97;19.43;;;22.80;66.90;;;;;;5053769;28;20572;-91
2023/12/11 10:23:26;;;;;;;43.33;17.03;;;22.80;67.10;;;;;;5049706;28;20855;-89
2023/12/11 10:26:04;;;;;;;46.87;17.07;;;22.80;65.70;;;;;;5029070;28;20544;-86
2023/12/11 10:28:31;;;;;;;39.10;17.13;;;22.80;66.70;;;;;;5032144;28;20541;-86
2023/12/11 10:30:59;;;;;;;49.10;15.80;;;22.80;66.40;;;;;;5031094;28;21032;-86
2023/12/11 10:33:30;;;;;;;33.40;15.17;;;22.80;66.40;;;;;;5031601;28;20454;-86
2023/12/11 10:36:10;;;;;;;44.00;17.47;;;22.80;66.20;;;;;;5032380;28;20508;-86
2023/12/11 10:38:37;;;;;;;26.37;13.27;;;22.80;66.10;;;;;;5033238;28;20529;-86
2023/12/11 10:41:04;;;;;;;31.60;14.60;;;22.70;65.60;;;;;;5033068;28;20601;-86
2023/12/11 10:43:40;;;;;;;31.27;14.53;;;22.70;65.40;;;;;;5033429;28;20484;-86
2023/12/11 10:46:08;;;;;;;33.27;12.97;;;22.70;65.20;;;;;;5033219;28;20434;-86
2023/12/11 10:48:35;;;;;;;34.97;12.30;;;22.70;65.40;;;;;;5033383;28;20469;-86
2023/12/11 10:51:04;;;;;;;33.00;13.37;;;22.70;64.80;;;;;;5033166;28;20439;-86
2023/12/11 10:53:31;;;;;;;33.47;14.43;;;22.70;64.70;;;;;;5033205;28;20796;-86
2023/12/11 10:55:59;;;;;;;30.83;11.80;;;22.70;65.20;;;;;;5033112;28;20446;-86
2023/12/11 10:58:27;;;;;;;27.37;11.70;;;22.70;64.30;;;;;;5033184;28;20809;-85
2023/12/11 11:00:56;;;;;;;30.03;12.67;;;22.70;64.60;;;;;;5033125;28;20817;-86
2023/12/11 11:03:24;;;;;;;27.53;11.77;;;22.70;64.30;;;;;;5033221;28;20512;-85
2023/12/11 11:05:53;;;;;;;29.83;13.10;;;22.70;64.20;;;;;;5033013;28;20445;-85
2023/12/11 11:08:30;;;;;;;26.30;12.23;;;22.70;64.00;;;;;;5032987;28;20446;-85
2023/12/11 11:11:02;;;;;;;30.70;10.63;;;22.70;63.90;;;;;;5033057;28;20508;-86
2023/12/11 11:13:33;;;;;;;18.97;10.00;;;22.70;64.00;;;;;;5032559;28;20545;-88
2023/12/11 11:15:59;;;;;;;22.23;10.40;;;22.70;63.90;;;;;;5032863;28;20476;-87
2023/12/11 11:18:26;;;;;;;21.63;9.50;;;22.70;63.90;;;;;;5032902;28;20446;-86
2023/12/11 11:21:11;;;;;;;29.70;9.20;;;22.70;63.60;;;;;;5032824;28;20494;-86
2023/12/11 11:23:46;;;;;;;20.70;9.23;;;22.70;63.50;;;;;;5033033;28;20445;-86
2023/12/11 11:26:33;;;;;;;33.60;9.73;;;22.70;63.60;;;;;;5032794;28;20430;-88
2023/12/11 11:29:00;;;;;;;19.30;9.03;;;22.70;63.50;;;;;;5032770;28;20438;-90
2023/12/11 11:31:49;;;;;;;19.60;9.50;;;22.70;63.50;;;;;;5032755;28;20442;-86
2023/12/11 11:34:15;;;;;;;20.23;8.60;;;22.70;63.50;;;;;;5032655;28;20507;-86
2023/12/11 11:36:47;;;;;;;12.97;7.43;;;22.60;63.30;;;;;;5033170;28;20442;-86
2023/12/11 11:39:15;;;;;;;18.53;8.50;;;22.70;63.30;;;;;;5032889;28;20442;-87
2023/12/11 11:41:43;;;;;;;18.80;8.63;;;22.70;63.30;;;;;;5033208;28;20573;-86
2023/12/11 11:44:11;;;;;;;18.37;7.50;;;22.70;62.60;;;;;;5033364;28;20446;-88
2023/12/11 11:46:52;;;;;;;17.27;8.33;;;22.70;63.00;;;;;;5036747;28;20450;-87
2023/12/11 11:49:29;;;;;;;23.60;8.50;;;22.70;62.90;;;;;;5036746;28;20480;-86
2023/12/11 11:51:56;;;;;;;15.20;7.43;;;22.70;62.70;;;;;;5036737;28;20445;-86
2023/12/11 11:54:32;;;;;;;20.07;7.50;;;22.70;62.40;;;;;;5036337;28;20448;-87
2023/12/11 11:56:59;;;;;;;15.80;7.17;;;22.70;62.90;;;;;;5041856;28;20476;-85
2023/12/11 11:59:26;;;;;;;11.73;6.50;;;22.70;63.20;;;;;;5036320;28;20540;-86
2023/12/11 12:01:54;;;;;;;18.50;8.13;;;22.70;63.30;;;;;;5036111;28;20486;-87
2023/12/11 12:04:28;;;;;;;13.20;6.50;;;22.70;64.20;;;;;;5036378;28;20446;-86
2023/12/11 12:06:57;;;;;;;15.40;6.80;;;22.70;63.10;;;;;;5036204;28;20517;-85
2023/12/11 12:09:26;;;;;;;13.90;4.50;;;22.70;63.10;;;;;;5036550;28;20453;-91
2023/12/11 12:11:53;;;;;;;12.97;4.40;;;22.70;61.40;;;;;;5036615;28;20438;-88
2023/12/11 12:14:20;;;;;;;15.47;5.97;;;22.70;59.90;;;;;;5036077;28;20476;-83
2023/12/11 12:16:47;;;;;;;8.53;5.40;;;22.60;61.40;;;;;;5020246;28;21527;-90
2023/12/11 12:19:15;;;;;;;10.97;5.60;;;22.70;62.00;;;;;;5017555;28;20501;-90
2023/12/11 12:21:51;;;;;;;13.53;5.57;;;22.70;62.00;;;;;;5017532;28;21024;-90
2023/12/11 12:24:18;;;;;;;10.37;5.90;;;22.70;62.40;;;;;;5017450;28;20954;-91
2023/12/11 12:26:48;;;;;;;10.90;4.97;;;22.70;62.10;;;;;;5018972;28;20439;-90
2023/12/11 12:29:16;;;;;;;14.23;6.70;;;22.70;62.10;;;;;;5020159;28;20439;-89
2023/12/11 12:31:43;;;;;;;10.40;7.67;;;22.70;63.00;;;;;;5035339;28;20628;-85
2023/12/11 12:34:11;;;;;;;16.80;8.47;;;22.70;63.30;;;;;;5034552;28;20457;-85
2023/12/11 12:36:38;;;;;;;20.77;9.60;;;22.70;64.10;;;;;;5034131;28;20968;-85
2023/12/11 12:39:06;;;;;;;16.93;9.97;;;22.70;65.20;;;;;;5033918;28;20446;-86
2023/12/11 12:41:32;;;;;;;15.10;9.63;;;22.80;66.10;;;;;;5035338;28;20486;-85
2023/12/11 12:44:02;;;;;;;17.93;10.07;;;22.70;66.10;;;;;;5030746;28;20462;-93
2023/12/11 12:46:38;;;;;;;14.70;8.77;;;22.70;65.40;;;;;;5027369;28;20485;-89
2023/12/11 12:49:09;;;;;;;8.60;5.70;;;22.80;64.70;;;;;;5037138;28;20449;-90
2023/12/11 12:51:45;;;;;;;11.43;6.90;;;22.70;62.40;;;;;;5038316;28;20840;-88
2023/12/11 12:54:12;;;;;;;12.80;7.97;;;22.80;64.70;;;;;;5037653;28;20499;-90
2023/12/11 12:56:39;;;;;;;13.57;7.50;;;22.70;65.20;;;;;;5038400;28;20529;-85
2023/12/11 12:59:08;;;;;;;10.60;7.70;;;22.80;65.50;;;;;;5035310;28;20811;-86
2023/12/11 13:01:36;;;;;;;13.53;7.70;;;22.80;65.90;;;;;;5033754;28;20563;-90
2023/12/11 13:04:03;;;;;;;16.90;8.57;;;22.80;65.90;;;;;;5033423;28;20861;-86
2023/12/11 13:06:30;;;;;;;14.17;7.77;;;22.80;66.10;;;;;;5034713;28;20450;-86
2023/12/11 13:08:57;;;;;;;23.13;7.70;;;22.80;66.10;;;;;;5034932;28;20875;-86
2023/12/11 13:11:40;;;;;;;12.03;6.77;;;22.80;66.10;;;;;;5034910;28;20952;-88
2023/12/11 13:14:08;;;;;;;16.80;7.70;;;22.90;65.70;;;;;;5034441;28;20831;-86
2023/12/11 13:16:35;;;;;;;15.20;7.37;;;22.80;66.10;;;;;;5033582;28;20427;-87
2023/12/11 13:19:02;;;;;;;13.83;7.33;;;22.90;65.80;;;;;;5034974;28;20440;-86
2023/12/11 13:21:29;;;;;;;14.70;7.50;;;22.90;64.80;;;;;;5034060;28;20985;-86
2023/12/11 13:23:56;;;;;;;15.93;7.77;;;22.90;65.80;;;;;;5035083;28;20446;-91
2023/12/11 13:26:23;;;;;;;11.70;6.17;;;22.90;65.90;;;;;;5034524;28;20434;-86
2023/12/11 13:28:49;;;;;;;11.13;6.07;;;22.90;65.70;;;;;;5034885;28;20482;-86
2023/12/11 13:31:18;;;;;;;14.77;7.30;;;22.80;65.30;;;;;;5028614;28;20821;-87
2023/12/11 13:33:44;;;;;;;11.70;6.10;;;22.90;65.50;;;;;;5016702;28;20550;-86
2023/12/11 13:36:13;;;;;;;10.23;6.17;;;22.80;65.00;;;;;;5032092;28;20438;-86
2023/12/11 13:38:41;;;;;;;21.40;8.90;;;22.80;64.90;;;;;;5034239;28;20443;-87
2023/12/11 13:41:08;;;;;;;12.80;6.07;;;22.90;64.80;;;;;;5034133;28;20985;-86
2023/12/11 13:43:35;;;;;;;8.83;5.43;;;22.90;65.30;;;;;;5040928;28;20800;-86
2023/12/11 13:46:02;;;;;;;10.67;5.60;;;22.90;65.20;;;;;;5034382;28;20803;-90
2023/12/11 13:48:30;;;;;;;9.53;5.90;;;22.90;65.00;;;;;;5034548;28;20446;-89
2023/12/11 13:50:58;;;;;;;11.20;4.83;;;22.90;64.60;;;;;;5034575;28;20438;-86
2023/12/11 13:53:24;;;;;;;12.30;5.10;;;22.90;63.30;;;;;;5034857;28;20444;-85
2023/12/11 13:55:51;;;;;;;15.40;6.27;;;22.90;64.20;;;;;;5034152;28;20439;-85
2023/12/11 13:58:18;;;;;;;7.57;5.23;;;22.90;64.70;;;;;;5034229;28;20441;-85
2023/12/11 14:00:45;;;;;;;6.53;3.53;;;22.90;64.60;;;;;;5034614;28;20466;-85
2023/12/11 14:03:12;;;;;;;10.00;4.40;;;22.90;61.90;;;;;;5034259;28;20458;-90
2023/12/11 14:05:40;;;;;;;11.80;4.27;;;22.90;63.00;;;;;;5034147;28;20975;-90
2023/12/11 14:08:07;;;;;;;7.13;4.07;;;22.80;64.00;;;;;;5033513;28;20968;-86
2023/12/11 14:10:34;;;;;;;6.90;4.50;;;22.90;63.30;;;;;;5034182;28;20934;-85
2023/12/11 14:13:01;;;;;;;8.20;4.27;;;22.90;64.40;;;;;;5033947;28;20484;-87
2023/12/11 14:15:29;;;;;;;9.20;4.27;;;22.90;64.20;;;;;;5034019;28;20517;-86
2023/12/11 14:17:55;;;;;;;6.33;3.50;;;22.90;64.00;;;;;;5033936;28;20484;-85
2023/12/11 14:20:22;;;;;;;10.33;4.07;;;22.90;63.60;;;;;;5033921;28;20936;-86
2023/12/11 14:22:50;;;;;;;6.97;4.03;;;22.90;63.80;;;;;;5034245;28;20848;-85
2023/12/11 14:25:17;;;;;;;9.10;4.83;;;23.00;63.70;;;;;;5033884;28;20470;-85
2023/12/11 14:27:44;;;;;;;6.17;4.60;;;22.80;63.80;;;;;;5034100;28;20438;-89
2023/12/11 14:30:11;;;;;;;6.87;3.77;;;22.90;63.30;;;;;;5034061;28;20441;-90
2023/12/11 14:32:38;;;;;;;6.50;3.53;;;22.90;63.80;;;;;;5033953;28;20458;-85
2023/12/11 14:35:05;;;;;;;9.77;4.50;;;22.80;63.70;;;;;;5033727;28;20556;-85
2023/12/11 14:37:32;;;;;;;10.87;3.80;;;22.80;63.60;;;;;;5034231;28;20474;-85
2023/12/11 14:40:00;;;;;;;5.87;3.20;;;22.80;63.50;;;;;;5033931;28;20438;-85
2023/12/11 14:42:28;;;;;;;5.97;3.47;;;22.80;63.80;;;;;;5033573;28;20485;-85
2023/12/11 14:44:55;;;;;;;5.90;3.43;;;22.80;63.60;;;;;;5033827;28;20450;-85
2023/12/11 14:47:23;;;;;;;8.50;2.77;;;22.80;63.40;;;;;;5033498;28;20917;-85
2023/12/11 14:49:50;;;;;;;10.33;3.40;;;22.80;63.30;;;;;;5033773;28;20473;-85
2023/12/11 14:52:17;;;;;;;7.23;3.67;;;22.70;63.40;;;;;;5033642;28;20435;-85
2023/12/11 14:54:44;;;;;;;5.83;3.13;;;22.80;62.50;;;;;;5033354;28;20442;-85
2023/12/11 14:57:12;;;;;;;8.03;3.50;;;22.80;63.10;;;;;;5033492;28;20438;-85
2023/12/11 14:59:39;;;;;;;5.50;2.40;;;22.80;62.00;;;;;;5034123;28;20450;-84
2023/12/11 15:02:06;;;;;;;6.70;3.50;;;22.80;62.30;;;;;;5033346;28;20500;-84
2023/12/11 15:04:33;;;;;;;5.90;3.00;;;22.80;62.70;;;;;;5033237;28;20533;-85
2023/12/11 15:07:00;;;;;;;7.73;3.10;;;22.80;62.90;;;;;;5033170;28;20430;-88
2023/12/11 15:09:30;;;;;;;3.37;2.47;;;22.80;62.80;;;;;;5033453;28;20442;-89
2023/12/11 15:11:57;;;;;;;5.83;3.10;;;22.80;60.60;;;;;;5033551;28;20430;-85
2023/12/11 15:14:26;;;;;;;4.47;2.13;;;22.60;60.80;;;;;;5033148;28;20470;-85
2023/12/11 15:16:54;;;;;;;4.50;3.13;;;22.60;61.10;;;;;;5033052;28;20454;-85
2023/12/11 15:19:21;;;;;;;9.17;2.77;;;22.60;62.10;;;;;;5035545;28;20430;-85
2023/12/11 15:21:47;;;;;;;4.10;2.83;;;22.70;62.20;;;;;;5040172;28;20469;-86
2023/12/11 15:24:14;;;;;;;6.43;2.40;;;22.60;61.80;;;;;;5039623;28;20913;-85
2023/12/11 15:26:41;;;;;;;4.40;2.37;;;22.70;61.40;;;;;;5039833;28;20445;-85
2023/12/11 15:29:08;;;;;;;4.67;2.83;;;22.70;61.50;;;;;;5039789;28;20441;-86
2023/12/11 15:31:36;;;;;;;8.10;3.60;;;22.70;62.20;;;;;;5040113;28;20448;-85
2023/12/11 15:34:04;;;;;;;11.03;3.97;;;22.70;61.40;;;;;;5039739;28;20446;-85
2023/12/11 15:36:30;;;;;;;3.60;3.30;;;22.70;62.20;;;;;;5039343;28;20442;-85
2023/12/11 15:38:57;;;;;;;7.70;4.93;;;22.70;62.60;;;;;;5039571;28;20925;-88
2023/12/11 15:41:24;;;;;;;10.93;6.47;;;22.60;62.50;;;;;;5039445;28;20443;-85
2023/12/11 15:43:51;;;;;;;6.90;6.00;;;22.60;62.80;;;;;;5039719;28;20793;-85
2023/12/11 15:46:17;;;;;;;11.07;6.83;;;22.60;62.90;;;;;;5040516;28;20461;-85
2023/12/11 15:48:45;;;;;;;12.20;7.43;;;22.60;64.00;;;;;;5039262;28;20430;-85
2023/12/11 15:51:14;;;;;;;9.40;5.83;;;22.60;63.00;;;;;;5039196;28;20442;-85
2023/12/11 15:53:44;;;;;;;9.20;6.17;;;22.70;63.00;;;;;;5038759;28;20537;-91
2023/12/11 15:56:12;;;;;;;4.77;3.17;;;22.60;63.00;;;;;;5033432;28;20442;-85
2023/12/11 15:58:39;;;;;;;12.17;5.37;;;22.60;59.90;;;;;;5038173;28;20642;-85
2023/12/11 16:01:08;;;;;;;11.73;6.40;;;22.60;60.70;;;;;;5037583;28;20928;-85
2023/12/11 16:03:35;;;;;;;8.30;5.97;;;22.60;62.40;;;;;;5038424;28;21023;-85
2023/12/11 16:06:04;;;;;;;9.87;6.13;;;22.50;62.70;;;;;;5038633;28;20881;-85
2023/12/11 16:08:30;;;;;;;15.53;6.43;;;22.50;62.70;;;;;;5038258;28;20940;-85
2023/12/11 16:10:58;;;;;;;14.53;6.40;;;22.50;62.60;;;;;;5038977;28;20438;-85
2023/12/11 16:13:25;;;;;;;10.37;5.53;;;22.50;62.60;;;;;;5038906;28;20564;-85
2023/12/11 16:15:51;;;;;;;13.60;5.80;;;22.50;62.50;;;;;;5038377;28;20513;-86
2023/12/11 16:18:18;;;;;;;9.77;5.83;;;22.50;62.10;;;;;;5038420;28;20534;-85
2023/12/11 16:20:45;;;;;;;8.30;5.53;;;22.50;62.40;;;;;;5037879;28;20438;-85
2023/12/11 16:23:13;;;;;;;10.87;5.93;;;22.60;62.40;;;;;;5038750;28;20838;-85
2023/12/11 16:25:40;;;;;;;9.87;4.97;;;22.50;62.10;;;;;;5039067;28;20438;-85
2023/12/11 16:28:07;;;;;;;10.20;5.53;;;22.50;62.20;;;;;;5039105;28;20499;-85
2023/12/11 16:30:33;;;;;;;12.83;5.77;;;22.50;62.20;;;;;;5037697;28;20441;-85
2023/12/11 16:33:00;;;;;;;7.90;5.30;;;22.50;62.30;;;;;;5035381;28;20480;-90
2023/12/11 16:35:28;;;;;;;8.27;5.50;;;22.50;62.20;;;;;;5035697;28;20808;-85
2023/12/11 16:37:55;;;;;;;8.37;4.83;;;22.50;62.10;;;;;;5035574;28;20849;-90
2023/12/11 16:40:23;;;;;;;8.13;5.10;;;22.50;62.20;;;;;;5035656;28;20774;-85
2023/12/11 16:42:50;;;;;;;10.57;5.40;;;22.50;62.10;;;;;;5035750;28;20576;-85
2023/12/11 16:45:17;;;;;;;5.77;4.60;;;22.50;62.00;;;;;;5035596;28;20435;-85
2023/12/11 16:47:49;;;;;;;9.80;5.00;;;22.50;62.00;;;;;;5035540;28;20433;-87
2023/12/11 16:50:16;;;;;;;7.10;4.43;;;22.50;62.10;;;;;;5035569;28;20805;-85
2023/12/11 16:52:43;;;;;;;10.53;5.20;;;22.50;62.20;;;;;;5035328;28;20442;-85
2023/12/11 16:55:10;;;;;;;6.77;4.37;;;22.50;62.10;;;;;;5035292;28;20453;-85
2023/12/11 16:57:38;;;;;;;6.87;4.13;;;22.50;62.20;;;;;;5035229;28;20440;-85
2023/12/11 17:00:06;;;;;;;11.00;4.40;;;22.50;62.10;;;;;;5035287;28;20449;-85
2023/12/11 17:02:32;;;;;;;4.80;4.30;;;22.50;62.10;;;;;;5035199;28;20489;-85
2023/12/11 17:04:59;;;;;;;7.13;4.90;;;22.60;62.40;;;;;;5035084;28;20460;-86
2023/12/11 17:07:26;;;;;;;5.17;3.73;;;22.50;62.20;;;;;;5035199;28;20445;-85
2023/12/11 17:09:53;;;;;;;6.70;3.67;;;22.50;62.20;;;;;;5035065;28;20434;-91
2023/12/11 17:12:20;;;;;;;10.30;4.10;;;22.50;62.20;;;;;;5035031;28;20525;-85
2023/12/11 17:14:48;;;;;;;7.93;4.27;;;22.50;62.20;;;;;;5034743;28;20492;-85
2023/12/11 17:17:15;;;;;;;5.47;3.93;;;22.50;62.10;;;;;;5034751;28;20458;-85
2023/12/11 17:19:42;;;;;;;5.30;3.97;;;22.50;62.00;;;;;;5034986;28;20441;-85
2023/12/11 17:22:08;;;;;;;6.40;4.33;;;22.60;62.20;;;;;;5034809;28;20482;-85
2023/12/11 17:24:38;;;;;;;5.53;3.97;;;22.50;62.00;;;;;;5034864;28;20442;-90
2023/12/11 17:27:05;;;;;;;6.30;4.00;;;22.50;62.00;;;;;;5049378;28;20440;-85
2023/12/11 17:29:31;;;;;;;4.63;3.50;;;22.50;62.00;;;;;;5055030;28;20821;-85
2023/12/11 17:32:00;;;;;;;4.03;3.40;;;22.50;61.90;;;;;;5053296;28;20458;-85
2023/12/11 17:34:27;;;;;;;5.80;4.10;;;22.50;61.90;;;;;;5034585;28;20438;-85
2023/12/11 17:36:53;;;;;;;7.60;3.60;;;22.50;61.90;;;;;;5034454;28;20435;-85
2023/12/11 17:39:20;;;;;;;7.50;4.00;;;22.50;62.00;;;;;;5034508;28;20438;-85
2023/12/11 17:41:47;;;;;;;12.17;4.43;;;22.50;62.00;;;;;;5034641;28;20461;-85
2023/12/11 17:44:14;;;;;;;4.90;3.97;;;22.60;62.10;;;;;;5034390;28;20572;-85
2023/12/11 17:46:40;;;;;;;6.50;4.10;;;22.50;61.90;;;;;;5035536;28;20440;-85
2023/12/11 17:49:09;;;;;;;6.97;4.20;;;22.50;61.90;;;;;;5034454;28;20430;-85
2023/12/11 17:51:35;;;;;;;6.13;3.70;;;22.50;61.90;;;;;;5034264;28;20431;-85
2023/12/11 17:54:02;;;;;;;5.23;3.63;;;22.50;61.90;;;;;;5034381;28;20449;-86
2023/12/11 17:56:29;;;;;;;4.20;3.20;;;22.50;61.80;;;;;;5033801;28;20925;-86
2023/12/11 17:58:56;;;;;;;5.77;4.20;;;22.50;61.80;;;;;;5034269;28;20492;-85
2023/12/11 18:01:23;;;;;;;4.17;3.20;;;22.50;61.80;;;;;;5034111;28;20438;-85
2023/12/11 18:03:50;;;;;;;4.93;3.07;;;22.50;61.90;;;;;;5034084;28;20490;-85
2023/12/11 18:06:18;;;;;;;6.83;3.50;;;22.50;61.80;;;;;;5033972;28;20437;-85
2023/12/11 18:08:45;;;;;;;3.83;3.40;;;22.50;61.80;;;;;;5033915;28;20446;-85
2023/12/11 18:11:12;;;;;;;6.33;3.50;;;22.50;61.80;;;;;;5033958;28;20533;-91
2023/12/11 18:13:39;;;;;;;4.43;2.83;;;22.50;61.80;;;;;;5033620;28;20476;-85
2023/12/11 18:16:07;;;;;;;3.50;3.00;;;22.50;61.80;;;;;;5033678;28;20521;-84
2023/12/11 18:18:34;;;;;;;5.70;2.80;;;22.50;61.70;;;;;;5033818;28;20521;-89
2023/12/11 18:21:01;;;;;;;3.33;2.50;;;22.50;60.10;;;;;;5034023;28;20445;-85
2023/12/11 18:23:29;;;;;;;3.20;2.90;;;22.50;60.60;;;;;;5033819;28;20485;-85
2023/12/11 18:25:56;;;;;;;6.10;2.80;;;22.40;61.40;;;;;;5034051;28;20438;-85
2023/12/11 18:28:23;;;;;;;5.37;3.17;;;22.40;61.50;;;;;;5034217;28;20426;-88
2023/12/11 18:30:50;;;;;;;5.23;2.87;;;22.40;61.60;;;;;;5034085;28;20801;-88
2023/12/11 18:33:17;;;;;;;3.67;2.60;;;22.40;61.60;;;;;;5033797;28;20470;-85
2023/12/11 18:35:44;;;;;;;3.97;2.73;;;22.40;61.50;;;;;;5034193;28;20525;-92
2023/12/11 18:38:10;;;;;;;3.80;3.20;;;22.40;61.70;;;;;;5034630;28;20500;-92
2023/12/11 18:40:39;;;;;;;2.83;2.60;;;22.40;61.80;;;;;;5033786;28;20452;-92
2023/12/11 18:43:06;;;;;;;5.13;2.60;;;22.50;61.80;;;;;;5033463;28;20988;-85
2023/12/11 18:45:33;;;;;;;2.77;2.50;;;22.50;61.80;;;;;;5036494;28;20930;-87
2023/12/11 18:48:00;;;;;;;5.60;2.30;;;22.50;61.80;;;;;;5037147;28;20460;-87
2023/12/11 18:50:26;;;;;;;5.50;2.77;;;22.60;62.10;;;;;;5035880;28;20795;-87
2023/12/11 18:52:53;;;;;;;3.80;3.07;;;22.50;61.90;;;;;;5033734;28;20453;-93
2023/12/11 18:55:20;;;;;;;6.67;3.40;;;22.50;61.90;;;;;;5033122;28;20502;-86
2023/12/11 18:57:48;;;;;;;5.63;3.00;;;22.50;61.90;;;;;;5033850;28;20537;-86
2023/12/11 19:00:15;;;;;;;3.17;2.50;;;22.50;61.30;;;;;;5033694;28;20456;-85
2023/12/11 19:02:42;;;;;;;3.40;2.60;;;22.50;61.80;;;;;;5033454;28;20470;-85
2023/12/11 19:05:09;;;;;;;3.33;2.60;;;22.50;61.70;;;;;;5033400;28;20444;-86
2023/12/11 19:07:37;;;;;;;2.90;2.57;;;22.60;62.00;;;;;;5033121;28;20448;-87
2023/12/11 19:10:04;;;;;;;3.67;2.10;;;22.60;61.90;;;;;;5033272;28;20941;-86
2023/12/11 19:12:31;;;;;;;4.00;2.53;;;22.60;61.60;;;;;;5013174;28;20446;-85
2023/12/11 19:18:34;;;;;;;6.10;2.87;;;22.70;62.00;;;;;;5065661;28;20495;-93
2023/12/11 19:21:01;;;;;;;3.47;2.90;;;22.60;62.30;;;;;;5065826;28;20458;-84
2023/12/11 19:23:28;;;;;;;2.80;2.53;;;22.70;62.20;;;;;;5063876;28;20484;-85
2023/12/11 19:25:55;;;;;;;2.30;2.10;;;22.70;62.40;;;;;;5068727;28;20450;-84
2023/12/11 19:28:22;;;;;;;4.87;2.43;;;22.70;62.70;;;;;;5072829;28;20437;-83
2023/12/11 19:30:49;;;;;;;3.13;2.80;;;22.70;62.60;;;;;;5072868;28;20436;-85
2023/12/11 19:33:16;;;;;;;4.20;2.60;;;22.70;62.70;;;;;;5072986;28;20526;-84
2023/12/11 19:35:44;;;;;;;3.90;2.33;;;22.70;62.80;;;;;;5073426;28;20451;-85
2023/12/11 19:38:12;;;;;;;3.30;2.67;;;22.70;62.80;;;;;;5072978;28;20432;-84
2023/12/11 19:40:39;;;;;;;3.93;2.40;;;22.70;62.90;;;;;;5073730;28;20443;-89
2023/12/11 19:43:06;;;;;;;3.83;2.40;;;22.70;62.80;;;;;;5055339;28;20491;-84
2023/12/11 19:45:33;;;;;;;6.70;2.67;;;22.70;62.90;;;;;;5072761;28;20436;-84
2023/12/11 19:48:00;;;;;;;3.00;2.40;;;22.70;63.00;;;;;;5072938;28;20443;-90
2023/12/11 19:50:27;;;;;;;4.80;2.50;;;22.70;62.70;;;;;;5073168;28;20784;-85
2023/12/11 19:52:55;;;;;;;2.57;2.33;;;22.90;63.20;;;;;;5057486;28;20445;-86
2023/12/11 19:55:22;;;;;;;3.80;2.00;;;22.90;63.30;;;;;;5053169;28;20460;-84
2023/12/11 19:57:49;;;;;;;2.43;2.23;;;22.80;63.10;;;;;;5053148;28;20940;-86
2023/12/11 20:00:16;;;;;;;3.10;2.13;;;22.80;63.10;;;;;;5057126;28;20433;-85
2023/12/11 20:02:45;;;;;;;3.90;2.43;;;22.80;63.30;;;;;;5057193;28;21086;-86
2023/12/11 20:05:12;;;;;;;3.73;2.43;;;22.80;63.30;;;;;;5052698;28;20444;-85
2023/12/11 20:07:39;;;;;;;5.50;2.43;;;22.80;63.30;;;;;;5056023;28;20441;-85
2023/12/11 20:10:10;;;;;;;3.80;2.60;;;22.70;63.30;;;;;;5056797;28;20441;-85
2023/12/11 20:12:37;;;;;;;3.23;2.33;;;22.80;63.30;;;;;;5075526;28;20440;-85
2023/12/11 20:15:04;;;;;;;2.20;2.00;;;22.80;63.50;;;;;;5076466;28;20432;-85
2023/12/11 20:17:33;;;;;;;2.93;2.67;;;22.80;63.30;;;;;;5076597;28;20468;-86
2023/12/11 20:20:04;;;;;;;3.20;2.53;;;22.80;63.30;;;;;;5076248;28;20947;-86
2023/12/11 20:22:31;;;;;;;3.50;2.07;;;22.70;63.30;;;;;;5076823;28;20479;-86
2023/12/11 20:24:58;;;;;;;3.40;2.30;;;22.70;63.30;;;;;;5076181;28;20476;-86
2023/12/11 20:27:26;;;;;;;4.70;2.90;;;22.80;63.50;;;;;;5076473;28;20535;-86
2023/12/11 20:29:53;;;;;;;4.13;2.40;;;22.80;63.60;;;;;;5056092;28;20446;-85
2023/12/11 20:32:20;;;;;;;3.20;2.10;;;22.80;63.60;;;;;;5056133;28;20453;-87
2023/12/11 20:34:47;;;;;;;4.43;2.70;;;22.80;63.50;;;;;;5066927;28;20436;-86
2023/12/11 20:37:14;;;;;;;3.43;2.10;;;22.80;63.60;;;;;;5076069;28;20798;-86
2023/12/11 20:39:41;;;;;;;2.43;2.17;;;22.80;63.70;;;;;;5075988;28;20734;-86
2023/12/11 20:42:07;;;;;;;3.63;2.00;;;22.80;63.50;;;;;;5075740;28;20923;-87
2023/12/11 20:44:35;;;;;;;7.67;2.30;;;22.80;63.50;;;;;;5076140;28;20491;-86
2023/12/11 20:47:02;;;;;;;3.40;2.53;;;22.80;63.50;;;;;;5075794;28;20439;-91
2023/12/11 20:49:29;;;;;;;4.60;2.20;;;22.80;63.40;;;;;;5075018;28;20548;-85
2023/12/11 20:51:56;;;;;;;3.30;2.40;;;22.80;63.70;;;;;;5067914;28;20451;-85
2023/12/11 20:54:23;;;;;;;2.10;1.90;;;22.80;63.50;;;;;;5063725;28;20912;-84